Time;durP1;ratioP1;P1;durP2;ratioP2;P2;SDS_P1;SDS_P2;PMS_P1;PMS_P2;Temp;Humidity;BMP_temperature;BMP_pressure;BME280_temperature;BME280_humidity;BME280_pressure;Samples;Min_cycle;Max_cycle;Signal;HPM_P1;HPM_P2
2023/04/06 00:00:12;;;;;;;;;;;3.00;99.90;;;;;;5019176;28;19968;-72
2023/04/06 00:02:38;;;;;;;;;;;3.00;99.90;;;;;;5007944;28;19924;-72
2023/04/06 00:05:03;;;;;;;;;;;3.00;99.90;;;;;;4997994;28;19913;-72
2023/04/06 00:07:29;;;;;;;;;;;3.00;99.90;;;;;;4995497;28;19917;-72
2023/04/06 00:09:55;;;;;;;;;;;3.00;99.90;;;;;;4986824;28;19913;-72
2023/04/06 00:12:21;;;;;;;;;;;3.00;99.90;;;;;;4997644;28;19946;-72
2023/04/06 00:14:46;;;;;;;;;;;3.00;99.90;;;;;;5014575;28;19917;-72
2023/04/06 00:17:12;;;;;;;;;;;3.00;99.90;;;;;;4997485;28;19921;-72
2023/04/06 00:19:37;;;;;;;;;;;3.00;99.90;;;;;;4992291;28;20008;-72
2023/04/06 00:22:03;;;;;;;;;;;2.80;99.90;;;;;;5007761;28;19932;-72
2023/04/06 00:24:29;;;;;;;;;;;2.70;99.90;;;;;;5025413;28;19913;-72
2023/04/06 00:26:55;;;;;;;;;;;2.80;99.90;;;;;;5028490;28;19913;-72
2023/04/06 00:29:21;;;;;;;;;;;2.80;99.90;;;;;;5008135;28;19913;-72
2023/04/06 00:31:46;;;;;;;;;;;2.70;99.90;;;;;;5017146;28;19928;-72
2023/04/06 00:34:12;;;;;;;;;;;2.80;99.90;;;;;;4997970;28;20287;-72
2023/04/06 00:36:38;;;;;;;;;;;2.80;99.90;;;;;;5001441;28;19944;-72
2023/04/06 00:39:03;;;;;;;;;;;2.70;99.90;;;;;;4999819;28;19920;-72
2023/04/06 00:41:29;;;;;;;;;;;2.80;99.90;;;;;;4998412;28;20006;-72
2023/04/06 00:43:56;;;;;;;;;;;2.80;99.90;;;;;;5001068;28;19913;-72
2023/04/06 00:46:22;;;;;;;;;;;2.90;99.90;;;;;;4985505;28;20441;-72
2023/04/06 00:48:47;;;;;;;;;;;2.80;99.90;;;;;;5013304;28;19913;-72
2023/04/06 00:51:13;;;;;;;;;;;2.90;99.90;;;;;;4985599;28;20000;-72
2023/04/06 00:53:38;;;;;;;;;;;2.90;99.90;;;;;;5001380;28;20211;-72
2023/04/06 00:56:04;;;;;;;;;;;2.90;99.90;;;;;;4980090;28;19980;-72
2023/04/06 00:58:30;;;;;;;;;;;2.90;99.90;;;;;;4992455;28;19917;-72
2023/04/06 01:00:56;;;;;;;;;;;2.80;99.90;;;;;;4973127;28;20297;-72
2023/04/06 01:03:22;;;;;;;;;;;2.80;99.90;;;;;;4997911;28;20382;-72
2023/04/06 01:05:47;;;;;;;;;;;2.90;99.90;;;;;;4990910;28;20000;-72
2023/04/06 01:08:13;;;;;;;;;;;2.90;99.90;;;;;;5007220;28;20293;-72
2023/04/06 01:10:39;;;;;;;;;;;2.80;99.90;;;;;;5011712;28;20373;-72
2023/04/06 01:13:06;;;;;;;;;;;2.80;99.90;;;;;;5003721;28;19917;-72
2023/04/06 01:15:32;;;;;;;;;;;2.80;99.90;;;;;;4998892;28;19910;-72
2023/04/06 01:17:58;;;;;;;;;;;2.70;99.90;;;;;;4992496;28;19968;-72
2023/04/06 01:20:24;;;;;;;;;;;2.70;99.90;;;;;;4998108;28;20000;-72
2023/04/06 01:22:49;;;;;;;;;;;2.70;99.90;;;;;;5000468;28;20000;-72
2023/04/06 01:25:15;;;;;;;;;;;2.70;99.90;;;;;;4984355;28;20039;-72
2023/04/06 01:27:42;;;;;;;;;;;2.80;99.90;;;;;;5010632;28;19917;-73
2023/04/06 01:30:08;;;;;;;;;;;2.80;99.90;;;;;;5002866;28;19924;-72
2023/04/06 01:32:34;;;;;;;;;;;2.90;99.90;;;;;;5006551;28;19914;-72
2023/04/06 01:35:00;;;;;;;;;;;2.80;99.90;;;;;;4984036;28;19953;-72
2023/04/06 01:37:25;;;;;;;;;;;2.80;99.90;;;;;;5002738;28;19917;-72
2023/04/06 01:39:51;;;;;;;;;;;2.80;99.90;;;;;;5005836;28;19972;-72
2023/04/06 01:42:17;;;;;;;;;;;2.70;99.90;;;;;;5015074;28;19913;-72
2023/04/06 01:44:42;;;;;;;;;;;2.70;99.90;;;;;;5000839;28;20291;-72
2023/04/06 01:47:08;;;;;;;;;;;2.70;99.90;;;;;;4993721;28;19941;-72
2023/04/06 01:49:34;;;;;;;;;;;2.50;99.90;;;;;;4984688;28;20048;-72
2023/04/06 01:52:00;;;;;;;;;;;2.50;99.90;;;;;;5002762;28;19960;-72
2023/04/06 01:54:26;;;;;;;;;;;2.40;99.90;;;;;;5013221;28;20058;-72
2023/04/06 01:56:52;;;;;;;;;;;2.40;99.90;;;;;;5008376;28;20009;-72
2023/04/06 01:59:18;;;;;;;;;;;2.40;99.90;;;;;;5009795;28;19940;-73
2023/04/06 02:01:43;;;;;;;;;;;2.30;99.90;;;;;;5003244;28;19913;-72
2023/04/06 02:04:09;;;;;;;;;;;2.20;99.90;;;;;;5002737;28;20635;-72
2023/04/06 02:06:35;;;;;;;;;;;2.20;99.90;;;;;;4995592;28;19909;-72
2023/04/06 02:09:01;;;;;;;;;;;2.20;99.90;;;;;;4996191;28;20295;-72
2023/04/06 02:11:26;;;;;;;;;;;2.20;99.90;;;;;;4986177;28;19953;-72
2023/04/06 02:13:52;;;;;;;;;;;2.10;99.90;;;;;;5001463;28;19999;-72
2023/04/06 02:16:18;;;;;;;;;;;2.10;99.90;;;;;;4997367;28;19976;-72
2023/04/06 02:18:50;;;;;;;;;;;2.00;99.90;;;;;;5005999;28;19953;-74
2023/04/06 02:21:19;;;;;;;;;;;2.10;99.90;;;;;;4996168;28;19909;-73
2023/04/06 02:23:45;;;;;;;;;;;1.90;99.90;;;;;;5010899;28;19956;-72
2023/04/06 02:26:11;;;;;;;;;;;1.90;99.90;;;;;;4999986;28;19980;-72
2023/04/06 02:28:37;;;;;;;;;;;1.90;99.90;;;;;;4999386;28;19928;-72
2023/04/06 02:31:02;;;;;;;;;;;1.90;99.90;;;;;;4990844;28;20058;-72
2023/04/06 02:33:28;;;;;;;;;;;1.90;99.90;;;;;;5005147;28;20415;-72
2023/04/06 02:35:54;;;;;;;;;;;1.80;99.90;;;;;;5012150;28;20016;-72
2023/04/06 02:38:19;;;;;;;;;;;1.80;99.90;;;;;;5002348;28;19917;-72
2023/04/06 02:40:45;;;;;;;;;;;1.70;99.90;;;;;;5004840;28;20242;-72
2023/04/06 02:43:11;;;;;;;;;;;1.70;99.90;;;;;;4992261;28;19913;-72
2023/04/06 02:45:36;;;;;;;;;;;1.60;99.90;;;;;;4988194;28;20334;-72
2023/04/06 02:48:02;;;;;;;;;;;1.70;99.90;;;;;;5015283;28;19913;-72
2023/04/06 02:50:27;;;;;;;;;;;1.80;99.90;;;;;;4999788;28;19924;-72
2023/04/06 02:52:53;;;;;;;;;;;1.80;99.90;;;;;;4977143;28;19999;-72
2023/04/06 02:55:19;;;;;;;;;;;1.70;99.90;;;;;;4992508;28;20365;-72
2023/04/06 02:57:45;;;;;;;;;;;1.60;99.90;;;;;;5003769;28;19917;-72
2023/04/06 03:00:11;;;;;;;;;;;1.70;99.90;;;;;;4996661;28;19912;-72
2023/04/06 03:02:37;;;;;;;;;;;1.80;99.90;;;;;;5002217;28;20421;-72
2023/04/06 03:05:03;;;;;;;;;;;1.70;99.90;;;;;;4994532;28;19955;-72
2023/04/06 03:07:28;;;;;;;;;;;1.60;99.90;;;;;;5018996;28;19909;-72
2023/04/06 03:09:54;;;;;;;;;;;1.50;99.90;;;;;;4982122;28;19909;-72
2023/04/06 03:12:20;;;;;;;;;;;1.50;99.90;;;;;;5006849;28;20324;-73
2023/04/06 03:14:46;;;;;;;;;;;1.50;99.90;;;;;;5032784;28;19917;-72
2023/04/06 03:17:11;;;;;;;;;;;1.40;99.90;;;;;;5015299;28;19921;-73
2023/04/06 03:19:37;;;;;;;;;;;1.50;99.90;;;;;;4989930;28;19917;-73
2023/04/06 03:22:02;;;;;;;;;;;1.50;99.90;;;;;;5012598;28;20416;-72
2023/04/06 03:24:28;;;;;;;;;;;1.40;99.90;;;;;;4983174;28;20008;-71
2023/04/06 03:26:54;;;;;;;;;;;1.40;99.90;;;;;;4997198;28;20305;-72
2023/04/06 03:29:20;;;;;;;;;;;1.40;99.90;;;;;;5011882;28;19912;-72
2023/04/06 03:31:46;;;;;;;;;;;1.40;99.90;;;;;;5009040;28;19913;-72
2023/04/06 03:34:11;;;;;;;;;;;1.40;99.90;;;;;;4991278;28;20018;-72
2023/04/06 03:36:37;;;;;;;;;;;1.30;99.90;;;;;;5019300;28;20228;-72
2023/04/06 03:39:03;;;;;;;;;;;1.30;99.90;;;;;;4993814;28;20318;-72
2023/04/06 03:41:28;;;;;;;;;;;1.40;99.90;;;;;;5009238;28;19913;-72
2023/04/06 03:43:54;;;;;;;;;;;1.30;99.90;;;;;;4995311;28;19920;-72
2023/04/06 03:46:20;;;;;;;;;;;1.30;99.90;;;;;;5015099;28;20215;-73
2023/04/06 03:48:48;;;;;;;;;;;1.30;99.90;;;;;;5008850;28;19917;-72
2023/04/06 03:51:13;;;;;;;;;;;1.30;99.90;;;;;;5008018;28;20392;-73
2023/04/06 03:53:40;;;;;;;;;;;1.30;99.90;;;;;;5010190;28;19944;-71
2023/04/06 03:56:05;;;;;;;;;;;1.20;99.90;;;;;;4987967;28;19913;-72
2023/04/06 03:58:31;;;;;;;;;;;1.20;99.90;;;;;;5027162;28;20364;-72
2023/04/06 04:00:56;;;;;;;;;;;1.10;99.90;;;;;;5011791;28;20406;-72
2023/04/06 04:03:23;;;;;;;;;;;1.10;99.90;;;;;;5004257;28;20218;-72
2023/04/06 04:05:50;;;;;;;;;;;1.00;99.90;;;;;;4997081;28;19920;-72
2023/04/06 04:08:15;;;;;;;;;;;0.90;99.90;;;;;;4998301;28;19913;-72
2023/04/06 04:10:41;;;;;;;;;;;1.00;99.90;;;;;;4989391;28;19921;-72
2023/04/06 04:13:07;;;;;;;;;;;1.00;99.90;;;;;;4985877;28;19927;-72
2023/04/06 04:15:32;;;;;;;;;;;0.90;99.90;;;;;;4986008;28;20324;-72
2023/04/06 04:17:58;;;;;;;;;;;0.90;99.90;;;;;;5011695;28;19920;-72
2023/04/06 04:20:24;;;;;;;;;;;0.90;99.90;;;;;;5013615;28;19924;-72
2023/04/06 04:22:49;;;;;;;;;;;0.90;99.90;;;;;;5009623;28;19917;-72
2023/04/06 04:25:15;;;;;;;;;;;0.90;99.90;;;;;;4974333;28;19943;-72
2023/04/06 04:27:41;;;;;;;;;;;0.80;99.90;;;;;;5003453;28;19913;-72
2023/04/06 04:30:07;;;;;;;;;;;0.90;99.90;;;;;;5013632;28;20372;-72
2023/04/06 04:32:32;;;;;;;;;;;0.90;99.90;;;;;;4995702;28;20318;-72
2023/04/06 04:34:58;;;;;;;;;;;0.90;99.90;;;;;;4991896;28;19909;-72
2023/04/06 04:37:23;;;;;;;;;;;0.80;99.90;;;;;;5025194;28;19916;-72
2023/04/06 04:39:49;;;;;;;;;;;0.90;99.90;;;;;;4999038;28;19913;-72
2023/04/06 04:42:15;;;;;;;;;;;0.90;99.90;;;;;;5007859;28;19974;-72
2023/04/06 04:44:41;;;;;;;;;;;0.80;99.90;;;;;;5014678;28;19909;-72
2023/04/06 04:47:06;;;;;;;;;;;0.90;99.90;;;;;;5000696;28;20602;-72
2023/04/06 04:49:32;;;;;;;;;;;0.90;99.90;;;;;;4993189;28;19932;-72
2023/04/06 04:51:57;;;;;;;;;;;0.90;99.90;;;;;;4994742;28;19913;-72
2023/04/06 04:54:23;;;;;;;;;;;0.80;99.90;;;;;;5027999;28;19948;-72
2023/04/06 04:56:50;;;;;;;;;;;0.80;99.90;;;;;;5007280;28;20417;-72
2023/04/06 04:59:16;;;;;;;;;;;0.80;99.90;;;;;;4989192;28;19932;-72
2023/04/06 05:01:41;;;;;;;;;;;0.90;99.90;;;;;;4994513;28;19917;-72
2023/04/06 05:04:07;;;;;;;;;;;0.80;99.90;;;;;;5014184;28;20393;-71
2023/04/06 05:06:33;;;;;;;;;;;0.90;99.90;;;;;;5000507;28;20429;-72
2023/04/06 05:08:58;;;;;;;;;;;0.80;99.90;;;;;;5006296;28;19913;-72
2023/04/06 05:11:25;;;;;;;;;;;0.90;99.90;;;;;;5024284;28;20027;-72
2023/04/06 05:13:51;;;;;;;;;;;0.90;99.90;;;;;;4999834;28;19921;-72
2023/04/06 05:16:17;;;;;;;;;;;0.90;99.90;;;;;;5023343;28;19914;-72
2023/04/06 05:18:43;;;;;;;;;;;0.90;99.90;;;;;;4994387;28;20308;-71
2023/04/06 05:21:10;;;;;;;;;;;0.90;99.90;;;;;;5009619;28;20365;-72
2023/04/06 05:23:36;;;;;;;;;;;1.00;99.90;;;;;;4979295;28;20346;-72
2023/04/06 05:26:01;;;;;;;;;;;1.00;99.90;;;;;;5009243;28;19913;-72
2023/04/06 05:28:27;;;;;;;;;;;1.00;99.90;;;;;;5018234;28;19953;-72
2023/04/06 05:30:52;;;;;;;;;;;0.90;99.90;;;;;;5008459;28;19913;-72
2023/04/06 05:33:18;;;;;;;;;;;1.00;99.90;;;;;;5006730;28;19913;-73
2023/04/06 05:35:44;;;;;;;;;;;1.00;99.90;;;;;;4991374;28;19909;-72
2023/04/06 05:38:10;;;;;;;;;;;1.00;99.90;;;;;;5007114;28;19913;-73
2023/04/06 05:40:37;;;;;;;;;;;1.00;99.90;;;;;;5013895;28;19963;-73
2023/04/06 05:43:03;;;;;;;;;;;1.10;99.90;;;;;;4987785;28;19921;-73
2023/04/06 05:45:29;;;;;;;;;;;1.20;99.90;;;;;;5001453;28;19913;-73
2023/04/06 05:47:55;;;;;;;;;;;1.10;99.90;;;;;;5000268;28;19913;-72
2023/04/06 05:50:22;;;;;;;;;;;1.20;99.90;;;;;;5009187;28;19909;-72
2023/04/06 05:52:47;;;;;;;;;;;1.20;99.90;;;;;;4984367;28;19917;-72
2023/04/06 05:55:13;;;;;;;;;;;1.20;99.90;;;;;;4976322;28;19920;-74
2023/04/06 05:57:39;;;;;;;;;;;1.20;99.90;;;;;;5008620;28;19913;-75
2023/04/06 06:00:06;;;;;;;;;;;1.30;99.90;;;;;;4990323;28;20004;-74
2023/04/06 06:02:32;;;;;;;;;;;1.30;99.90;;;;;;5006445;28;20295;-74
2023/04/06 06:04:57;;;;;;;;;;;1.40;99.90;;;;;;5004337;28;20004;-74
2023/04/06 06:07:23;;;;;;;;;;;1.50;99.90;;;;;;4986522;28;20055;-74
2023/04/06 06:09:49;;;;;;;;;;;1.50;99.90;;;;;;5009385;28;20004;-74
2023/04/06 06:12:14;;;;;;;;;;;1.50;99.90;;;;;;4995839;28;19967;-74
2023/04/06 06:14:40;;;;;;;;;;;1.60;99.90;;;;;;4994718;28;19914;-74
2023/04/06 06:17:06;;;;;;;;;;;1.70;99.90;;;;;;5004905;28;19918;-74
2023/04/06 06:19:31;;;;;;;;;;;1.80;99.90;;;;;;5018627;28;19917;-76
2023/04/06 06:21:58;;;;;;;;;;;1.80;99.90;;;;;;5016966;28;19924;-74
2023/04/06 06:24:24;;;;;;;;;;;1.80;99.90;;;;;;4992805;28;20036;-74
2023/04/06 06:26:49;;;;;;;;;;;1.90;99.90;;;;;;5012608;28;20011;-74
2023/04/06 06:29:16;;;;;;;;;;;1.90;99.90;;;;;;4992359;28;20457;-74
2023/04/06 06:31:42;;;;;;;;;;;2.00;99.90;;;;;;5014318;28;19913;-74
2023/04/06 06:34:10;;;;;;;;;;;2.10;99.90;;;;;;5013199;28;20237;-75
2023/04/06 06:36:35;;;;;;;;;;;2.20;99.90;;;;;;5017724;28;20639;-75
2023/04/06 06:39:03;;;;;;;;;;;2.20;99.90;;;;;;4988265;28;19956;-74
2023/04/06 06:41:29;;;;;;;;;;;2.30;99.90;;;;;;4988576;28;20071;-74
2023/04/06 06:43:54;;;;;;;;;;;2.40;99.90;;;;;;5012529;28;20481;-74
2023/04/06 06:46:20;;;;;;;;;;;2.50;99.90;;;;;;5006998;28;19924;-74
2023/04/06 06:48:46;;;;;;;;;;;2.50;99.90;;;;;;4997863;28;19966;-76
2023/04/06 06:51:12;;;;;;;;;;;2.60;99.90;;;;;;5009267;28;19936;-72
2023/04/06 06:53:37;;;;;;;;;;;2.70;99.90;;;;;;4987359;28;20580;-72
2023/04/06 06:56:03;;;;;;;;;;;2.60;99.90;;;;;;5016380;28;19924;-72
2023/04/06 06:58:28;;;;;;;;;;;2.70;99.90;;;;;;5014813;28;19920;-72
2023/04/06 07:00:57;;;;;;;;;;;2.70;99.90;;;;;;4997725;28;19962;-73
2023/04/06 07:03:23;;;;;;;;;;;2.80;99.90;;;;;;5014960;28;19909;-72
2023/04/06 07:05:52;;;;;;;;;;;2.90;99.90;;;;;;5005407;28;19920;-73
2023/04/06 07:08:19;;;;;;;;;;;2.90;99.90;;;;;;4987108;28;19919;-73
2023/04/06 07:10:45;;;;;;;;;;;3.10;99.90;;;;;;5007173;28;19913;-73
2023/04/06 07:13:11;;;;;;;;;;;3.10;99.90;;;;;;4993854;28;19975;-73
2023/04/06 07:15:36;;;;;;;;;;;3.20;99.90;;;;;;5001501;28;19925;-74
2023/04/06 07:18:02;;;;;;;;;;;3.30;99.90;;;;;;4993207;28;20011;-73
2023/04/06 07:20:28;;;;;;;;;;;3.40;99.90;;;;;;4989308;28;19914;-73
2023/04/06 07:22:54;;;;;;;;;;;3.50;99.90;;;;;;5006380;28;19913;-73
2023/04/06 07:25:19;;;;;;;;;;;3.70;99.90;;;;;;5011610;28;19968;-73
2023/04/06 07:27:45;;;;;;;;;;;3.80;99.90;;;;;;4997069;28;19945;-73
2023/04/06 07:30:11;;;;;;;;;;;3.90;99.90;;;;;;5007718;28;19945;-73
2023/04/06 07:32:36;;;;;;;;;;;4.00;99.90;;;;;;4987935;28;19913;-73
2023/04/06 07:35:02;;;;;;;;;;;4.10;99.90;;;;;;5004339;28;19921;-73
2023/04/06 07:37:28;;;;;;;;;;;4.40;99.90;;;;;;4999570;28;19917;-73
2023/04/06 07:39:54;;;;;;;;;;;4.50;99.90;;;;;;4983192;28;19927;-73
2023/04/06 07:42:19;;;;;;;;;;;4.70;99.90;;;;;;5013373;28;20023;-73
2023/04/06 07:44:45;;;;;;;;;;;4.80;99.90;;;;;;5005948;28;19910;-73
2023/04/06 07:47:11;;;;;;;;;;;5.00;99.80;;;;;;4985809;28;20631;-73
2023/04/06 07:49:37;;;;;;;;;;;5.10;98.30;;;;;;4989533;28;19929;-73
2023/04/06 07:52:03;;;;;;;;;;;5.20;98.60;;;;;;5004155;28;20227;-73
2023/04/06 07:54:28;;;;;;;;;;;5.20;96.40;;;;;;4978171;28;19913;-73
2023/04/06 07:56:54;;;;;;;;;;;5.30;94.30;;;;;;4999164;28;19937;-73
2023/04/06 07:59:20;;;;;;;;;;;5.40;93.60;;;;;;5009209;28;19913;-73
2023/04/06 08:01:45;;;;;;;;;;;5.60;91.30;;;;;;5004106;28;19917;-74
2023/04/06 08:04:11;;;;;;;;;;;5.60;91.90;;;;;;5010873;28;19913;-73
2023/04/06 08:06:37;;;;;;;;;;;5.70;91.70;;;;;;4983105;28;19918;-73
2023/04/06 08:09:03;;;;;;;;;;;5.90;91.30;;;;;;5009742;28;19921;-73
2023/04/06 08:11:29;;;;;;;;;;;5.90;90.70;;;;;;5024043;28;19913;-73
2023/04/06 08:13:56;;;;;;;;;;;6.00;90.30;;;;;;5026453;28;19917;-73
2023/04/06 08:16:23;;;;;;;;;;;6.00;88.00;;;;;;5008348;28;19932;-73
2023/04/06 08:18:48;;;;;;;;;;;6.20;86.70;;;;;;4995292;28;20357;-73
2023/04/06 08:21:14;;;;;;;;;;;6.30;87.70;;;;;;5005671;28;19917;-73
2023/04/06 08:23:40;;;;;;;;;;;6.40;87.60;;;;;;5007741;28;19913;-73
2023/04/06 08:26:06;;;;;;;;;;;6.60;86.80;;;;;;5001950;28;20003;-73
2023/04/06 08:28:34;;;;;;;;;;;6.60;84.10;;;;;;4996246;28;19999;-73
2023/04/06 08:31:03;;;;;;;;;;;6.70;84.20;;;;;;5014181;28;19920;-73
2023/04/06 08:33:28;;;;;;;;;;;6.90;79.40;;;;;;4994872;28;19939;-73
2023/04/06 08:35:54;;;;;;;;;;;7.00;81.00;;;;;;5000361;28;19928;-74
2023/04/06 08:38:20;;;;;;;;;;;7.00;79.50;;;;;;4988606;28;20622;-73
2023/04/06 08:40:47;;;;;;;;;;;7.00;78.00;;;;;;4988017;28;20010;-73
2023/04/06 08:43:13;;;;;;;;;;;7.20;74.80;;;;;;5007939;28;19996;-73
2023/04/06 08:45:40;;;;;;;;;;;7.30;76.80;;;;;;4994764;28;19988;-73
2023/04/06 08:48:06;;;;;;;;;;;7.50;75.00;;;;;;4978535;28;19944;-73
2023/04/06 08:50:35;;;;;;;;;;;7.50;73.50;;;;;;4978775;28;19971;-73
2023/04/06 08:53:01;;;;;;;;;;;7.50;72.30;;;;;;5006720;28;19936;-73
2023/04/06 08:55:26;;;;;;;;;;;7.50;73.30;;;;;;5006621;28;19909;-73
2023/04/06 08:57:54;;;;;;;;;;;7.50;70.80;;;;;;4997192;28;19967;-73
2023/04/06 09:00:20;;;;;;;;;;;7.70;70.60;;;;;;4997222;28;20329;-73
2023/04/06 09:02:48;;;;;;;;;;;7.70;70.60;;;;;;5013610;28;19923;-73
2023/04/06 09:05:13;;;;;;;;;;;7.70;68.40;;;;;;5002348;28;19913;-73
2023/04/06 09:07:39;;;;;;;;;;;7.90;68.40;;;;;;5007470;28;20352;-74
2023/04/06 09:10:05;;;;;;;;;;;8.00;68.70;;;;;;4990932;28;19949;-74
2023/04/06 09:12:31;;;;;;;;;;;8.00;64.90;;;;;;5005180;28;19917;-73
2023/04/06 09:14:57;;;;;;;;;;;8.00;65.90;;;;;;5001795;28;19917;-74
2023/04/06 09:17:24;;;;;;;;;;;8.10;65.40;;;;;;4997071;28;19921;-73
2023/04/06 09:19:49;;;;;;;;;;;8.30;67.10;;;;;;5020652;28;20072;-73
2023/04/06 09:22:15;;;;;;;;;;;8.40;66.20;;;;;;4997146;28;20106;-73
2023/04/06 09:24:42;;;;;;;;;;;8.30;63.70;;;;;;4995575;28;19913;-73
2023/04/06 09:27:07;;;;;;;;;;;8.40;66.50;;;;;;5007109;28;20258;-73
2023/04/06 09:29:34;;;;;;;;;;;8.40;62.00;;;;;;5001743;28;19914;-73
2023/04/06 09:32:06;;;;;;;;;;;8.50;61.60;;;;;;5010545;28;19991;-74
2023/04/06 09:34:32;;;;;;;;;;;8.60;61.30;;;;;;5006932;28;19921;-74
2023/04/06 09:36:58;;;;;;;;;;;8.70;61.70;;;;;;5016805;28;19924;-74
2023/04/06 09:39:24;;;;;;;;;;;8.70;61.70;;;;;;5000448;28;19913;-74
2023/04/06 09:41:50;;;;;;;;;;;8.70;61.30;;;;;;5018790;28;19924;-73
2023/04/06 09:44:15;;;;;;;;;;;8.70;58.50;;;;;;4989896;28;20246;-73
2023/04/06 09:46:44;;;;;;;;;;;8.80;61.40;;;;;;4999077;28;19909;-74
2023/04/06 09:49:10;;;;;;;;;;;8.90;59.60;;;;;;4987645;28;19918;-74
2023/04/06 09:51:36;;;;;;;;;;;9.00;61.30;;;;;;4986393;28;20000;-73
2023/04/06 09:54:04;;;;;;;;;;;9.10;59.00;;;;;;5007642;28;19913;-74
2023/04/06 09:56:46;;;;;;;;;;;9.00;57.60;;;;;;5005226;28;19921;-74
2023/04/06 09:59:13;;;;;;;;;;;9.10;56.80;;;;;;5004748;28;19909;-74
2023/04/06 10:01:39;;;;;;;;;;;9.30;57.60;;;;;;5004127;28;20277;-74
2023/04/06 10:04:23;;;;;;;;;;;9.50;57.70;;;;;;5006893;28;19913;-73
2023/04/06 10:06:52;;;;;;;;;;;9.50;58.10;;;;;;5012726;28;20000;-73
2023/04/06 10:09:18;;;;;;;;;;;9.80;58.80;;;;;;5006281;28;19918;-74
2023/04/06 10:11:44;;;;;;;;;;;9.80;58.80;;;;;;5000385;28;20279;-74
2023/04/06 10:14:11;;;;;;;;;;;9.80;57.00;;;;;;5002610;28;20302;-73
2023/04/06 10:16:37;;;;;;;;;;;10.00;57.60;;;;;;5003333;28;20069;-73
2023/04/06 10:19:38;;;;;;;;;;;10.00;57.00;;;;;;4988643;28;20250;-73
2023/04/06 10:22:04;;;;;;;;;;;10.40;58.40;;;;;;5005967;28;20028;-73
2023/04/06 10:24:30;;;;;;;;;;;10.50;57.20;;;;;;4965370;28;20020;-73
2023/04/06 10:26:59;;;;;;;;;;;10.50;56.20;;;;;;5000473;28;19913;-73
2023/04/06 10:29:25;;;;;;;;;;;10.50;57.10;;;;;;4992198;28;19913;-73
2023/04/06 10:31:51;;;;;;;;;;;10.50;54.50;;;;;;5000711;28;19914;-73
2023/04/06 10:34:16;;;;;;;;;;;10.60;54.70;;;;;;5007074;28;19913;-73
2023/04/06 10:36:42;;;;;;;;;;;10.70;54.40;;;;;;4984685;28;19913;-74
2023/04/06 10:39:08;;;;;;;;;;;10.80;56.00;;;;;;5006236;28;19913;-73
2023/04/06 10:41:34;;;;;;;;;;;10.80;55.50;;;;;;4998765;28;19909;-74
2023/04/06 10:44:01;;;;;;;;;;;11.00;54.30;;;;;;4978113;28;19921;-74
2023/04/06 10:46:30;;;;;;;;;;;11.10;52.90;;;;;;5002566;28;19910;-74
2023/04/06 10:48:55;;;;;;;;;;;11.30;53.90;;;;;;4997582;28;19920;-77
2023/04/06 10:51:24;;;;;;;;;;;11.60;58.30;;;;;;5015502;28;19913;-76
2023/04/06 10:53:50;;;;;;;;;;;11.70;54.80;;;;;;5023281;28;19913;-76
2023/04/06 10:56:16;;;;;;;;;;;11.90;56.80;;;;;;4984815;28;19921;-76
2023/04/06 10:58:48;;;;;;;;;;;12.10;56.80;;;;;;5007253;28;19917;-76
2023/04/06 11:01:17;;;;;;;;;;;11.90;53.80;;;;;;4995411;28;19914;-76
2023/04/06 11:03:44;;;;;;;;;;;12.00;56.20;;;;;;5001349;28;20020;-77
2023/04/06 11:06:09;;;;;;;;;;;12.20;56.50;;;;;;5024057;28;19909;-77
2023/04/06 11:08:36;;;;;;;;;;;12.30;56.00;;;;;;5007609;28;19988;-77
2023/04/06 11:11:06;;;;;;;;;;;12.50;57.00;;;;;;5022965;28;19913;-77
2023/04/06 11:13:39;;;;;;;;;;;12.60;54.10;;;;;;5001636;28;19928;-77
2023/04/06 11:16:04;;;;;;;;;;;12.30;53.30;;;;;;5002257;28;20438;-77
2023/04/06 11:18:31;;;;;;;;;;;12.40;54.10;;;;;;4990345;28;19938;-76
2023/04/06 11:20:56;;;;;;;;;;;12.60;52.00;;;;;;5025169;28;19940;-76
2023/04/06 11:23:25;;;;;;;;;;;12.60;53.30;;;;;;4997848;28;19948;-77
2023/04/06 11:25:51;;;;;;;;;;;12.60;51.30;;;;;;4990747;28;19914;-76
2023/04/06 11:28:17;;;;;;;;;;;12.80;52.40;;;;;;4997417;28;20257;-76
2023/04/06 11:30:43;;;;;;;;;;;12.90;51.20;;;;;;4985002;28;19914;-77
2023/04/06 11:33:08;;;;;;;;;;;13.00;50.90;;;;;;4990080;28;19917;-76
2023/04/06 11:35:34;;;;;;;;;;;13.30;54.30;;;;;;4996315;28;19920;-76
2023/04/06 11:38:02;;;;;;;;;;;13.20;50.40;;;;;;5006596;28;19964;-76
2023/04/06 11:40:29;;;;;;;;;;;13.40;52.30;;;;;;5001613;28;20319;-76
2023/04/06 11:42:55;;;;;;;;;;;13.30;52.60;;;;;;5011284;28;19913;-76
2023/04/06 11:45:21;;;;;;;;;;;13.40;53.60;;;;;;5004617;28;19929;-76
2023/04/06 11:47:54;;;;;;;;;;;14.00;52.50;;;;;;5005945;28;19925;-76
2023/04/06 11:50:20;;;;;;;;;;;13.80;50.40;;;;;;5005862;28;20207;-77
2023/04/06 11:52:46;;;;;;;;;;;13.80;51.10;;;;;;4985895;28;19940;-75
2023/04/06 11:55:16;;;;;;;;;;;14.30;53.30;;;;;;5004997;28;19909;-77
2023/04/06 11:57:42;;;;;;;;;;;14.10;48.30;;;;;;5012411;28;20331;-77
2023/04/06 12:00:09;;;;;;;;;;;14.00;48.40;;;;;;5002641;28;19924;-76
2023/04/06 12:02:36;;;;;;;;;;;14.10;51.40;;;;;;5001150;28;19913;-76
2023/04/06 12:05:01;;;;;;;;;;;14.00;48.90;;;;;;5015078;28;20233;-77
2023/04/06 12:07:28;;;;;;;;;;;14.00;50.50;;;;;;5002286;28;19924;-76
2023/04/06 12:09:54;;;;;;;;;;;14.10;49.70;;;;;;5006456;28;20227;-76
2023/04/06 12:12:19;;;;;;;;;;;14.40;49.10;;;;;;5016016;28;19949;-77
2023/04/06 12:14:45;;;;;;;;;;;14.50;49.10;;;;;;4977030;28;19964;-77
2023/04/06 12:17:11;;;;;;;;;;;14.50;48.40;;;;;;4992430;28;19928;-76
2023/04/06 12:19:37;;;;;;;;;;;14.60;47.50;;;;;;5008958;28;19995;-76
2023/04/06 12:22:02;;;;;;;;;;;14.20;47.40;;;;;;4991351;28;20278;-76
2023/04/06 12:24:28;;;;;;;;;;;14.60;47.10;;;;;;4991195;28;19913;-76
2023/04/06 12:26:54;;;;;;;;;;;14.90;49.10;;;;;;4971754;28;19917;-76
2023/04/06 12:29:20;;;;;;;;;;;15.00;48.30;;;;;;4990375;28;20497;-76
2023/04/06 12:31:46;;;;;;;;;;;15.30;47.10;;;;;;4975221;28;19913;-76
2023/04/06 12:34:11;;;;;;;;;;;15.20;44.50;;;;;;4975996;28;19996;-76
2023/04/06 12:36:38;;;;;;;;;;;15.40;46.10;;;;;;4975918;28;20235;-76
2023/04/06 12:39:03;;;;;;;;;;;14.90;46.30;;;;;;4991851;28;19910;-76
2023/04/06 12:41:29;;;;;;;;;;;15.50;47.00;;;;;;4990919;28;19964;-76
2023/04/06 12:43:55;;;;;;;;;;;15.60;46.30;;;;;;4974364;28;19921;-76
2023/04/06 12:46:21;;;;;;;;;;;15.70;41.40;;;;;;4990985;28;19914;-76
2023/04/06 12:48:47;;;;;;;;;;;15.70;44.00;;;;;;4956259;28;19910;-76
2023/04/06 12:51:13;;;;;;;;;;;15.80;43.10;;;;;;4975254;28;19913;-76
2023/04/06 12:53:39;;;;;;;;;;;15.90;43.40;;;;;;4986962;28;19913;-77
2023/04/06 12:56:17;;;;;;;;;;;15.80;41.30;;;;;;4956951;28;19914;-76
2023/04/06 12:58:43;;;;;;;;;;;15.80;42.70;;;;;;4992197;28;20351;-76
2023/04/06 13:01:09;;;;;;;;;;;15.90;41.90;;;;;;4992563;28;19945;-76
2023/04/06 13:03:35;;;;;;;;;;;15.80;41.20;;;;;;4974959;28;19909;-76
2023/04/06 13:06:00;;;;;;;;;;;16.00;41.90;;;;;;4992689;28;20568;-74
2023/04/06 13:08:27;;;;;;;;;;;16.20;41.90;;;;;;4991099;28;19918;-76
2023/04/06 13:10:53;;;;;;;;;;;16.50;42.10;;;;;;4975990;28;20318;-76
2023/04/06 13:13:28;;;;;;;;;;;16.10;39.90;;;;;;4990572;28;19918;-77
2023/04/06 13:15:55;;;;;;;;;;;16.10;38.90;;;;;;4992865;28;20592;-75
2023/04/06 13:18:21;;;;;;;;;;;16.60;41.00;;;;;;4990996;28;19953;-75
2023/04/06 13:20:47;;;;;;;;;;;17.10;37.70;;;;;;4974915;28;19960;-75
2023/04/06 13:23:12;;;;;;;;;;;17.00;38.90;;;;;;4986541;28;19917;-76
2023/04/06 13:25:39;;;;;;;;;;;17.50;40.20;;;;;;4994306;28;20334;-76
2023/04/06 13:28:05;;;;;;;;;;;17.70;39.90;;;;;;4994516;28;19949;-76
2023/04/06 13:30:31;;;;;;;;;;;17.60;37.20;;;;;;4995744;28;19960;-76
2023/04/06 13:32:56;;;;;;;;;;;17.30;37.70;;;;;;4960769;28;19914;-76
2023/04/06 13:35:23;;;;;;;;;;;17.50;37.10;;;;;;4993948;28;20426;-76
2023/04/06 13:37:48;;;;;;;;;;;17.50;37.80;;;;;;4960501;28;19922;-75
2023/04/06 13:40:14;;;;;;;;;;;18.20;36.80;;;;;;4993380;28;20462;-75
2023/04/06 13:42:41;;;;;;;;;;;18.00;36.10;;;;;;4976574;28;19941;-75
2023/04/06 13:45:07;;;;;;;;;;;17.10;37.70;;;;;;4977365;28;19961;-74
2023/04/06 13:47:32;;;;;;;;;;;16.20;37.30;;;;;;4989188;28;20358;-75
2023/04/06 13:49:59;;;;;;;;;;;17.60;39.20;;;;;;4994376;28;19972;-74
2023/04/06 13:52:25;;;;;;;;;;;17.90;37.20;;;;;;4990985;28;19910;-75
2023/04/06 13:54:51;;;;;;;;;;;18.00;37.60;;;;;;4975044;28;19921;-76
2023/04/06 13:57:16;;;;;;;;;;;18.20;37.70;;;;;;4993070;28;19995;-75
2023/04/06 13:59:42;;;;;;;;;;;18.70;35.40;;;;;;4993877;28;19913;-74
2023/04/06 14:02:09;;;;;;;;;;;17.80;35.30;;;;;;4993001;28;19913;-75
2023/04/06 14:04:35;;;;;;;;;;;18.80;34.70;;;;;;4994513;28;19917;-75
2023/04/06 14:07:00;;;;;;;;;;;18.40;35.60;;;;;;4974263;28;19985;-75
2023/04/06 14:09:27;;;;;;;;;;;18.40;33.80;;;;;;4961363;28;20005;-74
2023/04/06 14:11:52;;;;;;;;;;;18.40;35.60;;;;;;4974616;28;19914;-74
2023/04/06 14:14:20;;;;;;;;;;;19.20;35.90;;;;;;4993611;28;20008;-74
2023/04/06 14:16:46;;;;;;;;;;;18.50;33.20;;;;;;4973995;28;19914;-75
2023/04/06 14:19:15;;;;;;;;;;;18.40;33.10;;;;;;4976971;28;20001;-76